Dublin, OH (43016)

2:22 AM EST on February 13, 2016 (GMT -0500)
KOHDUBLI3 | | Change Station
CLOSE
Current Station
Personal Weather Station
Location: Dublin, OH
Elevation: 912 ft
Nearby Weather Stations
Active Advisory: Wind Chill Advisory

Elev 912 ft 40.13 °N, 83.08 °W | Updated 6 minutes ago

Overcast
Overcast
14.1 °F
Feels Like 14 °F
N
2.0
Wind Variable Wind from SE

Today
High -- | Low -- °F
--% Chance of Precip.
Yesterday
High -- | Low -- °F
Precip. -- in
Pressure 30.30 in
Visibility 7.0 miles
Clouds Few 2100 ft
Mostly Cloudy 2800 ft
Overcast 3300 ft
Windchill 14 °F
Dew Point 9 °F
Humidity 80%
Rainfall 0.00 in
Snow Depth Not available.
7:28 AM 6:05 PM
Waxing Crescent, 28% visible
METAR KOSU 130653Z AUTO 31013KT 7SM -SN FEW021 BKN028 OVC033 M10/M14 A3025 RMK AO2 SNB48 SLP259 P0000 T11001144
Pressure 30.30 in
Visibility 7.0 miles
Clouds Few 2100 ft
Mostly Cloudy 2800 ft
Overcast 3300 ft
Windchill 14 °F
Dew Point 9 °F
Humidity 80%
Rainfall 0.00 in
Snow Depth Not available.
7:28 AM 6:05 PM
Waxing Crescent, 28% visible
METAR KOSU 130653Z AUTO 31013KT 7SM -SN FEW021 BKN028 OVC033 M10/M14 A3025 RMK AO2 SNB48 SLP259 P0000 T11001144

10-Day Weather Forecast

Almanac

Astronomy

Feb. 13, 2016 Rise Set
Actual Time
Civil Twilight
Nautical Twilight
Astronomical Twilight
Moon
Length of Visible Light
Length of Day
Tomorrow will be .
, % of the Moon is Illuminated

Today's Extremes

State Highs State Lows

Community

WunderPhotos

Upload Photos

1,892,526 photos uploaded!

WunderBlog® & News

Nearby

Air Quality

  Air Quality AQ Index Pollutant
Not available.

Snow Depth

Station Depth Elevation

Earthquake Activity

City Distance Mag. Time & Date
Minimum magnitude displayed is 2.5.

Coastal Water Temperatures

Place Temperature

Stations

Nearby Weather Stations

Station Location Temp. Windchill Dew Point Humidity Wind Precip. Elev Updated Type
                   

Watches & Warnings

Wind Chill Advisory
Issued: 9:56 PM EST Feb. 12, 2016 – National Weather Service

... Wind Chill Advisory remains in effect until 10 am EST
Saturday...

* wind chill readings... wind chill readings of 10 to 15 degrees
below zero can be expected early Saturday morning.

* Impacts... the frigid conditions will be dangerous to those
venturing outside. Exposure may cause frostbite.

* Winds... winds will be out of the northwest from 10 to 20
mph... with gusts as high as 25 mph.

* Temperatures... low temperatures will range from 5 to 10 degrees
above zero.

Precautionary/preparedness actions...

A Wind Chill Advisory is issued when a strong wind will combine
with cold temperatures to create dangerously cold conditions for
exposed skin. The wind will make it feel like it is between
10 and 24 degrees below zero for a period of several hours. Those
planning to venture outdoors should use common sense and dress
warmly... making sure that all exposed skin is covered.



Hatzos